CO82 weather

Land Airport
Keenesburg, Colorado, United States

Public forecast

Using degrees Fahrenheit for public forecast. Weather courtesy of forecast.io.

METAR (pilot weather report)

Closest report is Denver International Airport, 14.6 nm (27.0 km) SSW. Retrieved 2019/04/23 21:53 UTC (27 minutes ago):

KDEN 232153Z 35005KT 10SM FEW090 FEW150 FEW220 17/04 A3002 RMK AO2 SLP124 T01720039

TAF (pilot weather forecast)

Closest forecast is Denver International Airport, 14.6 nm (27.0 km) SSW. Retrieved 2019/04/23 18:42 UTC (4 hours ago):

TAF KDEN 231740Z 2318/2424 22007KT P6SM SCT030 SCT045 FM232000 07008KT P6SM SCT070 FM240200 20010KT P6SM SKC FM240900 24008KT P6SM SKC FM241800 02007KT P6SM FEW100